sensor_id;sensor_type;location;lat;lon;timestamp;P1;durP1;ratioP1;P2;durP2;ratioP2
64351;SDS011;50680;52.626;-8.668;2024-01-15T00:00:29;36.08;;;11.30;;
64351;SDS011;50680;52.626;-8.668;2024-01-15T00:02:56;23.95;;;10.80;;
64351;SDS011;50680;52.626;-8.668;2024-01-15T00:05:24;25.52;;;11.52;;
64351;SDS011;50680;52.626;-8.668;2024-01-15T00:07:51;29.95;;;12.57;;
64351;SDS011;50680;52.626;-8.668;2024-01-15T00:10:18;28.02;;;12.75;;
64351;SDS011;50680;52.626;-8.668;2024-01-15T00:12:45;28.10;;;12.38;;
64351;SDS011;50680;52.626;-8.668;2024-01-15T00:15:12;35.63;;;13.13;;
64351;SDS011;50680;52.626;-8.668;2024-01-15T00:17:39;24.60;;;12.82;;
64351;SDS011;50680;52.626;-8.668;2024-01-15T00:20:06;39.15;;;27.05;;
64351;SDS011;50680;52.626;-8.668;2024-01-15T00:22:33;36.00;;;25.63;;
64351;SDS011;50680;52.626;-8.668;2024-01-15T00:25:02;31.58;;;22.75;;
64351;SDS011;50680;52.626;-8.668;2024-01-15T00:27:30;23.98;;;10.07;;
64351;SDS011;50680;52.626;-8.668;2024-01-15T00:29:57;29.77;;;10.65;;
64351;SDS011;50680;52.626;-8.668;2024-01-15T00:32:24;23.75;;;10.95;;
64351;SDS011;50680;52.626;-8.668;2024-01-15T00:34:51;29.58;;;20.55;;
64351;SDS011;50680;52.626;-8.668;2024-01-15T00:37:18;20.58;;;9.90;;
64351;SDS011;50680;52.626;-8.668;2024-01-15T00:39:45;21.30;;;9.48;;
64351;SDS011;50680;52.626;-8.668;2024-01-15T00:42:12;21.13;;;10.50;;
64351;SDS011;50680;52.626;-8.668;2024-01-15T00:44:40;22.52;;;10.38;;
64351;SDS011;50680;52.626;-8.668;2024-01-15T00:47:07;18.58;;;11.13;;
64351;SDS011;50680;52.626;-8.668;2024-01-15T00:49:34;24.95;;;9.85;;
64351;SDS011;50680;52.626;-8.668;2024-01-15T00:52:01;24.77;;;11.48;;
64351;SDS011;50680;52.626;-8.668;2024-01-15T00:54:28;20.40;;;9.60;;
64351;SDS011;50680;52.626;-8.668;2024-01-15T00:56:55;26.15;;;10.48;;
64351;SDS011;50680;52.626;-8.668;2024-01-15T00:59:22;32.17;;;18.77;;
64351;SDS011;50680;52.626;-8.668;2024-01-15T01:01:49;19.48;;;8.45;;
64351;SDS011;50680;52.626;-8.668;2024-01-15T01:04:16;22.17;;;8.23;;
64351;SDS011;50680;52.626;-8.668;2024-01-15T01:06:43;24.55;;;17.45;;
64351;SDS011;50680;52.626;-8.668;2024-01-15T01:09:10;18.27;;;7.90;;
64351;SDS011;50680;52.626;-8.668;2024-01-15T01:11:38;20.90;;;8.20;;
64351;SDS011;50680;52.626;-8.668;2024-01-15T01:14:05;20.63;;;8.32;;
64351;SDS011;50680;52.626;-8.668;2024-01-15T01:16:32;26.95;;;16.60;;
64351;SDS011;50680;52.626;-8.668;2024-01-15T01:19:06;28.65;;;16.77;;
64351;SDS011;50680;52.626;-8.668;2024-01-15T01:21:34;16.88;;;7.20;;
64351;SDS011;50680;52.626;-8.668;2024-01-15T01:24:01;23.15;;;7.75;;
64351;SDS011;50680;52.626;-8.668;2024-01-15T01:26:28;18.25;;;7.95;;
64351;SDS011;50680;52.626;-8.668;2024-01-15T01:28:55;22.88;;;15.60;;
64351;SDS011;50680;52.626;-8.668;2024-01-15T01:31:25;26.77;;;15.45;;
64351;SDS011;50680;52.626;-8.668;2024-01-15T01:33:52;19.55;;;14.80;;
64351;SDS011;50680;52.626;-8.668;2024-01-15T01:36:19;10.82;;;6.65;;
64351;SDS011;50680;52.626;-8.668;2024-01-15T01:38:46;11.50;;;6.25;;
64351;SDS011;50680;52.626;-8.668;2024-01-15T01:41:14;18.05;;;5.85;;
64351;SDS011;50680;52.626;-8.668;2024-01-15T01:43:41;14.73;;;6.05;;
64351;SDS011;50680;52.626;-8.668;2024-01-15T01:46:09;13.88;;;6.07;;
64351;SDS011;50680;52.626;-8.668;2024-01-15T01:48:37;22.05;;;12.52;;
64351;SDS011;50680;52.626;-8.668;2024-01-15T01:51:04;9.38;;;5.10;;
64351;SDS011;50680;52.626;-8.668;2024-01-15T01:53:32;10.80;;;5.35;;
64351;SDS011;50680;52.626;-8.668;2024-01-15T01:56:01;11.40;;;5.75;;
64351;SDS011;50680;52.626;-8.668;2024-01-15T01:58:29;15.18;;;5.47;;
64351;SDS011;50680;52.626;-8.668;2024-01-15T02:00:59;19.65;;;11.88;;
64351;SDS011;50680;52.626;-8.668;2024-01-15T02:03:27;8.23;;;4.55;;
64351;SDS011;50680;52.626;-8.668;2024-01-15T02:05:54;20.30;;;11.98;;
64351;SDS011;50680;52.626;-8.668;2024-01-15T02:08:22;11.10;;;5.60;;
64351;SDS011;50680;52.626;-8.668;2024-01-15T02:10:49;8.30;;;5.20;;
64351;SDS011;50680;52.626;-8.668;2024-01-15T02:13:17;11.82;;;6.00;;
64351;SDS011;50680;52.626;-8.668;2024-01-15T02:15:44;17.23;;;10.68;;
64351;SDS011;50680;52.626;-8.668;2024-01-15T02:18:12;19.30;;;11.40;;
64351;SDS011;50680;52.626;-8.668;2024-01-15T02:20:39;11.90;;;4.70;;
64351;SDS011;50680;52.626;-8.668;2024-01-15T02:23:12;22.52;;;11.85;;
64351;SDS011;50680;52.626;-8.668;2024-01-15T02:25:41;18.55;;;11.60;;
64351;SDS011;50680;52.626;-8.668;2024-01-15T02:28:13;15.85;;;5.13;;
64351;SDS011;50680;52.626;-8.668;2024-01-15T02:30:42;8.88;;;4.75;;
64351;SDS011;50680;52.626;-8.668;2024-01-15T02:33:10;15.73;;;10.70;;
64351;SDS011;50680;52.626;-8.668;2024-01-15T02:35:39;9.25;;;5.20;;
64351;SDS011;50680;52.626;-8.668;2024-01-15T02:38:06;13.20;;;5.18;;
64351;SDS011;50680;52.626;-8.668;2024-01-15T02:40:33;17.60;;;10.93;;
64351;SDS011;50680;52.626;-8.668;2024-01-15T02:43:01;9.45;;;5.18;;
64351;SDS011;50680;52.626;-8.668;2024-01-15T02:45:28;15.68;;;5.38;;
64351;SDS011;50680;52.626;-8.668;2024-01-15T02:47:55;19.50;;;10.93;;
64351;SDS011;50680;52.626;-8.668;2024-01-15T02:50:23;17.65;;;11.13;;
64351;SDS011;50680;52.626;-8.668;2024-01-15T02:52:50;13.40;;;4.95;;
64351;SDS011;50680;52.626;-8.668;2024-01-15T02:55:17;8.30;;;4.72;;
64351;SDS011;50680;52.626;-8.668;2024-01-15T02:57:45;22.05;;;11.15;;
64351;SDS011;50680;52.626;-8.668;2024-01-15T03:00:12;19.92;;;11.80;;
64351;SDS011;50680;52.626;-8.668;2024-01-15T03:02:40;11.05;;;5.00;;
64351;SDS011;50680;52.626;-8.668;2024-01-15T03:05:13;15.48;;;4.78;;
64351;SDS011;50680;52.626;-8.668;2024-01-15T03:07:40;14.80;;;10.13;;
64351;SDS011;50680;52.626;-8.668;2024-01-15T03:10:08;21.50;;;10.75;;
64351;SDS011;50680;52.626;-8.668;2024-01-15T03:12:35;18.15;;;11.43;;
64351;SDS011;50680;52.626;-8.668;2024-01-15T03:15:02;16.90;;;4.53;;
64351;SDS011;50680;52.626;-8.668;2024-01-15T03:17:30;11.20;;;3.90;;
64351;SDS011;50680;52.626;-8.668;2024-01-15T03:19:57;10.23;;;5.22;;
64351;SDS011;50680;52.626;-8.668;2024-01-15T03:22:24;17.77;;;9.75;;
64351;SDS011;50680;52.626;-8.668;2024-01-15T03:24:52;13.68;;;9.75;;
64351;SDS011;50680;52.626;-8.668;2024-01-15T03:27:19;12.00;;;4.93;;
64351;SDS011;50680;52.626;-8.668;2024-01-15T03:29:46;14.23;;;4.43;;
64351;SDS011;50680;52.626;-8.668;2024-01-15T03:32:14;17.85;;;10.82;;
64351;SDS011;50680;52.626;-8.668;2024-01-15T03:34:43;9.85;;;4.10;;
64351;SDS011;50680;52.626;-8.668;2024-01-15T03:37:10;12.57;;;3.95;;
64351;SDS011;50680;52.626;-8.668;2024-01-15T03:39:37;12.05;;;4.25;;
64351;SDS011;50680;52.626;-8.668;2024-01-15T03:42:04;16.25;;;5.15;;
64351;SDS011;50680;52.626;-8.668;2024-01-15T03:44:32;17.92;;;4.85;;
64351;SDS011;50680;52.626;-8.668;2024-01-15T03:46:59;20.02;;;11.18;;
64351;SDS011;50680;52.626;-8.668;2024-01-15T03:49:27;11.65;;;3.90;;
64351;SDS011;50680;52.626;-8.668;2024-01-15T03:51:54;11.32;;;4.78;;
64351;SDS011;50680;52.626;-8.668;2024-01-15T03:54:21;10.45;;;4.60;;
64351;SDS011;50680;52.626;-8.668;2024-01-15T03:56:48;11.60;;;4.45;;
64351;SDS011;50680;52.626;-8.668;2024-01-15T03:59:15;7.78;;;4.53;;
64351;SDS011;50680;52.626;-8.668;2024-01-15T04:01:47;14.43;;;5.15;;
64351;SDS011;50680;52.626;-8.668;2024-01-15T04:04:16;10.57;;;4.40;;
64351;SDS011;50680;52.626;-8.668;2024-01-15T04:06:45;10.77;;;4.80;;
64351;SDS011;50680;52.626;-8.668;2024-01-15T04:09:12;12.73;;;4.63;;
64351;SDS011;50680;52.626;-8.668;2024-01-15T04:11:40;18.38;;;11.15;;
64351;SDS011;50680;52.626;-8.668;2024-01-15T04:14:07;8.05;;;4.40;;
64351;SDS011;50680;52.626;-8.668;2024-01-15T04:16:35;6.47;;;3.67;;
64351;SDS011;50680;52.626;-8.668;2024-01-15T04:19:03;12.20;;;4.20;;
64351;SDS011;50680;52.626;-8.668;2024-01-15T04:21:31;15.43;;;10.15;;
64351;SDS011;50680;52.626;-8.668;2024-01-15T04:23:58;7.13;;;4.00;;
64351;SDS011;50680;52.626;-8.668;2024-01-15T04:26:25;15.23;;;4.07;;
64351;SDS011;50680;52.626;-8.668;2024-01-15T04:28:52;16.25;;;10.82;;
64351;SDS011;50680;52.626;-8.668;2024-01-15T04:31:22;9.13;;;3.75;;
64351;SDS011;50680;52.626;-8.668;2024-01-15T04:33:50;7.82;;;3.95;;
64351;SDS011;50680;52.626;-8.668;2024-01-15T04:36:17;8.65;;;3.83;;
64351;SDS011;50680;52.626;-8.668;2024-01-15T04:38:44;10.18;;;3.35;;
64351;SDS011;50680;52.626;-8.668;2024-01-15T04:41:12;22.70;;;10.15;;
64351;SDS011;50680;52.626;-8.668;2024-01-15T04:43:39;6.57;;;3.40;;
64351;SDS011;50680;52.626;-8.668;2024-01-15T04:46:07;4.95;;;3.75;;
64351;SDS011;50680;52.626;-8.668;2024-01-15T04:48:34;13.55;;;4.90;;
64351;SDS011;50680;52.626;-8.668;2024-01-15T04:51:03;5.68;;;3.42;;
64351;SDS011;50680;52.626;-8.668;2024-01-15T04:53:31;8.73;;;3.92;;
64351;SDS011;50680;52.626;-8.668;2024-01-15T04:55:59;9.48;;;4.00;;
64351;SDS011;50680;52.626;-8.668;2024-01-15T04:58:26;11.63;;;3.78;;
64351;SDS011;50680;52.626;-8.668;2024-01-15T05:00:54;8.25;;;3.53;;
64351;SDS011;50680;52.626;-8.668;2024-01-15T05:03:21;4.88;;;3.65;;
64351;SDS011;50680;52.626;-8.668;2024-01-15T05:05:48;11.07;;;3.47;;
64351;SDS011;50680;52.626;-8.668;2024-01-15T05:08:16;6.80;;;3.40;;
64351;SDS011;50680;52.626;-8.668;2024-01-15T05:10:43;15.50;;;10.25;;
64351;SDS011;50680;52.626;-8.668;2024-01-15T05:13:10;5.10;;;3.30;;
64351;SDS011;50680;52.626;-8.668;2024-01-15T05:15:37;8.68;;;3.65;;
64351;SDS011;50680;52.626;-8.668;2024-01-15T05:18:04;13.52;;;3.22;;
64351;SDS011;50680;52.626;-8.668;2024-01-15T05:20:32;9.10;;;3.00;;
64351;SDS011;50680;52.626;-8.668;2024-01-15T05:22:59;9.57;;;3.75;;
64351;SDS011;50680;52.626;-8.668;2024-01-15T05:25:27;7.38;;;3.85;;
64351;SDS011;50680;52.626;-8.668;2024-01-15T05:27:54;9.23;;;3.35;;
64351;SDS011;50680;52.626;-8.668;2024-01-15T05:30:21;8.23;;;2.85;;
64351;SDS011;50680;52.626;-8.668;2024-01-15T05:32:48;8.10;;;3.15;;
64351;SDS011;50680;52.626;-8.668;2024-01-15T05:35:15;12.70;;;3.92;;
64351;SDS011;50680;52.626;-8.668;2024-01-15T05:37:43;7.65;;;2.95;;
64351;SDS011;50680;52.626;-8.668;2024-01-15T05:40:14;9.57;;;3.72;;
64351;SDS011;50680;52.626;-8.668;2024-01-15T05:42:41;9.57;;;3.22;;
64351;SDS011;50680;52.626;-8.668;2024-01-15T05:45:09;11.95;;;2.80;;
64351;SDS011;50680;52.626;-8.668;2024-01-15T05:47:36;13.02;;;3.15;;
64351;SDS011;50680;52.626;-8.668;2024-01-15T05:50:03;18.83;;;9.40;;
64351;SDS011;50680;52.626;-8.668;2024-01-15T05:52:31;9.07;;;2.95;;
64351;SDS011;50680;52.626;-8.668;2024-01-15T05:54:58;6.88;;;2.97;;
64351;SDS011;50680;52.626;-8.668;2024-01-15T05:57:25;5.28;;;3.25;;
64351;SDS011;50680;52.626;-8.668;2024-01-15T05:59:53;10.23;;;3.25;;
64351;SDS011;50680;52.626;-8.668;2024-01-15T06:02:20;9.25;;;3.50;;
64351;SDS011;50680;52.626;-8.668;2024-01-15T06:04:47;19.70;;;8.85;;
64351;SDS011;50680;52.626;-8.668;2024-01-15T06:07:14;10.02;;;3.05;;
64351;SDS011;50680;52.626;-8.668;2024-01-15T06:09:41;11.85;;;3.70;;
64351;SDS011;50680;52.626;-8.668;2024-01-15T06:12:08;11.32;;;2.78;;
64351;SDS011;50680;52.626;-8.668;2024-01-15T06:14:35;6.40;;;2.75;;
64351;SDS011;50680;52.626;-8.668;2024-01-15T06:17:04;10.57;;;3.30;;
64351;SDS011;50680;52.626;-8.668;2024-01-15T06:19:31;5.30;;;2.60;;
64351;SDS011;50680;52.626;-8.668;2024-01-15T06:21:58;3.55;;;2.40;;
64351;SDS011;50680;52.626;-8.668;2024-01-15T06:24:26;11.43;;;2.92;;
64351;SDS011;50680;52.626;-8.668;2024-01-15T06:26:53;7.05;;;2.67;;
64351;SDS011;50680;52.626;-8.668;2024-01-15T06:29:20;7.07;;;3.38;;
64351;SDS011;50680;52.626;-8.668;2024-01-15T06:31:47;9.82;;;2.95;;
64351;SDS011;50680;52.626;-8.668;2024-01-15T06:34:15;7.35;;;2.85;;
64351;SDS011;50680;52.626;-8.668;2024-01-15T06:36:42;10.55;;;3.10;;
64351;SDS011;50680;52.626;-8.668;2024-01-15T06:39:09;28.23;;;5.07;;
64351;SDS011;50680;52.626;-8.668;2024-01-15T06:41:37;8.90;;;3.50;;
64351;SDS011;50680;52.626;-8.668;2024-01-15T06:44:10;7.28;;;2.85;;
64351;SDS011;50680;52.626;-8.668;2024-01-15T06:46:41;7.18;;;2.60;;
64351;SDS011;50680;52.626;-8.668;2024-01-15T06:49:09;5.45;;;2.97;;
64351;SDS011;50680;52.626;-8.668;2024-01-15T06:51:37;5.30;;;2.55;;
64351;SDS011;50680;52.626;-8.668;2024-01-15T06:54:04;4.97;;;2.53;;
64351;SDS011;50680;52.626;-8.668;2024-01-15T06:56:31;10.90;;;3.08;;
64351;SDS011;50680;52.626;-8.668;2024-01-15T06:58:59;8.13;;;2.55;;
64351;SDS011;50680;52.626;-8.668;2024-01-15T07:01:26;11.43;;;3.13;;
64351;SDS011;50680;52.626;-8.668;2024-01-15T07:03:53;4.10;;;2.70;;
64351;SDS011;50680;52.626;-8.668;2024-01-15T07:06:20;9.07;;;2.47;;
64351;SDS011;50680;52.626;-8.668;2024-01-15T07:08:48;7.93;;;3.25;;
64351;SDS011;50680;52.626;-8.668;2024-01-15T07:11:16;8.65;;;2.67;;
64351;SDS011;50680;52.626;-8.668;2024-01-15T07:13:43;5.00;;;2.20;;
64351;SDS011;50680;52.626;-8.668;2024-01-15T07:16:10;7.25;;;2.83;;
64351;SDS011;50680;52.626;-8.668;2024-01-15T07:18:37;5.38;;;2.45;;
64351;SDS011;50680;52.626;-8.668;2024-01-15T07:21:04;7.90;;;2.50;;
64351;SDS011;50680;52.626;-8.668;2024-01-15T07:23:31;5.38;;;3.20;;
64351;SDS011;50680;52.626;-8.668;2024-01-15T07:25:59;9.07;;;3.30;;
64351;SDS011;50680;52.626;-8.668;2024-01-15T07:28:28;7.93;;;2.90;;
64351;SDS011;50680;52.626;-8.668;2024-01-15T07:30:56;10.10;;;2.50;;
64351;SDS011;50680;52.626;-8.668;2024-01-15T07:33:26;9.35;;;2.85;;
64351;SDS011;50680;52.626;-8.668;2024-01-15T07:35:54;4.53;;;2.47;;
64351;SDS011;50680;52.626;-8.668;2024-01-15T07:38:21;8.20;;;3.15;;
64351;SDS011;50680;52.626;-8.668;2024-01-15T07:40:49;12.15;;;3.35;;
64351;SDS011;50680;52.626;-8.668;2024-01-15T07:43:16;6.95;;;3.80;;
64351;SDS011;50680;52.626;-8.668;2024-01-15T07:45:43;12.95;;;3.35;;
64351;SDS011;50680;52.626;-8.668;2024-01-15T07:48:11;8.75;;;3.38;;
64351;SDS011;50680;52.626;-8.668;2024-01-15T07:50:39;9.68;;;4.00;;
64351;SDS011;50680;52.626;-8.668;2024-01-15T07:53:06;10.25;;;3.85;;
64351;SDS011;50680;52.626;-8.668;2024-01-15T07:55:32;16.95;;;4.50;;
64351;SDS011;50680;52.626;-8.668;2024-01-15T07:58:00;22.40;;;6.22;;
64351;SDS011;50680;52.626;-8.668;2024-01-15T08:00:41;18.40;;;5.38;;
64351;SDS011;50680;52.626;-8.668;2024-01-15T08:03:08;16.02;;;5.03;;
64351;SDS011;50680;52.626;-8.668;2024-01-15T08:05:35;21.90;;;8.05;;
64351;SDS011;50680;52.626;-8.668;2024-01-15T08:08:02;9.63;;;4.07;;
64351;SDS011;50680;52.626;-8.668;2024-01-15T08:10:29;8.48;;;3.58;;
64351;SDS011;50680;52.626;-8.668;2024-01-15T08:12:56;12.65;;;4.10;;
64351;SDS011;50680;52.626;-8.668;2024-01-15T08:15:23;10.23;;;3.65;;
64351;SDS011;50680;52.626;-8.668;2024-01-15T08:17:55;11.18;;;4.00;;
64351;SDS011;50680;52.626;-8.668;2024-01-15T08:20:22;9.30;;;3.22;;
64351;SDS011;50680;52.626;-8.668;2024-01-15T08:22:49;6.47;;;3.53;;
64351;SDS011;50680;52.626;-8.668;2024-01-15T08:25:16;12.40;;;4.00;;
64351;SDS011;50680;52.626;-8.668;2024-01-15T08:27:44;11.07;;;3.42;;
64351;SDS011;50680;52.626;-8.668;2024-01-15T08:30:11;11.65;;;3.50;;
64351;SDS011;50680;52.626;-8.668;2024-01-15T08:32:38;8.77;;;3.40;;
64351;SDS011;50680;52.626;-8.668;2024-01-15T08:35:09;14.50;;;3.47;;
64351;SDS011;50680;52.626;-8.668;2024-01-15T08:37:37;12.73;;;4.30;;
64351;SDS011;50680;52.626;-8.668;2024-01-15T08:40:05;14.77;;;4.03;;
64351;SDS011;50680;52.626;-8.668;2024-01-15T08:42:32;13.45;;;3.60;;
64351;SDS011;50680;52.626;-8.668;2024-01-15T08:44:59;9.32;;;3.80;;
64351;SDS011;50680;52.626;-8.668;2024-01-15T08:47:26;8.38;;;3.70;;
64351;SDS011;50680;52.626;-8.668;2024-01-15T08:49:54;12.40;;;3.70;;
64351;SDS011;50680;52.626;-8.668;2024-01-15T08:52:21;10.15;;;3.15;;
64351;SDS011;50680;52.626;-8.668;2024-01-15T08:54:48;19.00;;;3.88;;
64351;SDS011;50680;52.626;-8.668;2024-01-15T08:57:15;13.98;;;3.53;;
64351;SDS011;50680;52.626;-8.668;2024-01-15T08:59:42;8.32;;;3.50;;
64351;SDS011;50680;52.626;-8.668;2024-01-15T09:02:09;7.68;;;3.40;;
64351;SDS011;50680;52.626;-8.668;2024-01-15T09:04:37;15.10;;;4.85;;
64351;SDS011;50680;52.626;-8.668;2024-01-15T09:07:04;9.55;;;3.47;;
64351;SDS011;50680;52.626;-8.668;2024-01-15T09:09:31;7.78;;;4.15;;
64351;SDS011;50680;52.626;-8.668;2024-01-15T09:11:58;8.07;;;3.88;;
64351;SDS011;50680;52.626;-8.668;2024-01-15T09:14:25;17.08;;;4.03;;
64351;SDS011;50680;52.626;-8.668;2024-01-15T09:17:03;14.55;;;3.70;;
64351;SDS011;50680;52.626;-8.668;2024-01-15T09:19:31;11.20;;;3.90;;
64351;SDS011;50680;52.626;-8.668;2024-01-15T09:21:59;14.90;;;4.20;;
64351;SDS011;50680;52.626;-8.668;2024-01-15T09:24:26;10.43;;;3.70;;
64351;SDS011;50680;52.626;-8.668;2024-01-15T09:26:54;16.85;;;3.95;;
64351;SDS011;50680;52.626;-8.668;2024-01-15T09:29:22;19.15;;;5.13;;
64351;SDS011;50680;52.626;-8.668;2024-01-15T09:31:51;12.52;;;4.25;;
64351;SDS011;50680;52.626;-8.668;2024-01-15T09:34:18;13.73;;;4.85;;
64351;SDS011;50680;52.626;-8.668;2024-01-15T09:36:46;17.95;;;5.53;;
64351;SDS011;50680;52.626;-8.668;2024-01-15T09:39:14;12.43;;;5.20;;
64351;SDS011;50680;52.626;-8.668;2024-01-15T09:41:44;31.27;;;5.05;;
64351;SDS011;50680;52.626;-8.668;2024-01-15T09:44:12;12.98;;;6.03;;
64351;SDS011;50680;52.626;-8.668;2024-01-15T09:46:39;6.28;;;4.22;;
64351;SDS011;50680;52.626;-8.668;2024-01-15T09:49:07;11.23;;;5.07;;
64351;SDS011;50680;52.626;-8.668;2024-01-15T09:51:35;10.18;;;4.65;;
64351;SDS011;50680;52.626;-8.668;2024-01-15T09:54:03;11.15;;;4.30;;
64351;SDS011;50680;52.626;-8.668;2024-01-15T09:56:32;6.78;;;3.75;;
64351;SDS011;50680;52.626;-8.668;2024-01-15T09:58:59;13.40;;;4.75;;
64351;SDS011;50680;52.626;-8.668;2024-01-15T10:01:26;18.70;;;4.45;;
64351;SDS011;50680;52.626;-8.668;2024-01-15T10:03:55;8.50;;;3.78;;
64351;SDS011;50680;52.626;-8.668;2024-01-15T10:06:22;12.68;;;3.45;;
64351;SDS011;50680;52.626;-8.668;2024-01-15T10:08:50;6.30;;;3.58;;
64351;SDS011;50680;52.626;-8.668;2024-01-15T10:11:18;15.52;;;9.15;;
64351;SDS011;50680;52.626;-8.668;2024-01-15T10:13:45;5.15;;;3.97;;
64351;SDS011;50680;52.626;-8.668;2024-01-15T10:16:16;7.75;;;4.43;;
64351;SDS011;50680;52.626;-8.668;2024-01-15T10:18:43;9.90;;;4.65;;
64351;SDS011;50680;52.626;-8.668;2024-01-15T10:21:10;5.95;;;4.57;;
64351;SDS011;50680;52.626;-8.668;2024-01-15T10:23:37;6.20;;;3.53;;
64351;SDS011;50680;52.626;-8.668;2024-01-15T10:26:04;11.35;;;9.25;;
64351;SDS011;50680;52.626;-8.668;2024-01-15T10:28:31;8.60;;;3.65;;
64351;SDS011;50680;52.626;-8.668;2024-01-15T10:30:59;12.20;;;8.52;;
64351;SDS011;50680;52.626;-8.668;2024-01-15T10:33:27;15.60;;;8.93;;
64351;SDS011;50680;52.626;-8.668;2024-01-15T10:35:55;12.98;;;8.57;;
64351;SDS011;50680;52.626;-8.668;2024-01-15T10:38:23;12.07;;;8.82;;
64351;SDS011;50680;52.626;-8.668;2024-01-15T10:40:54;12.50;;;8.35;;
64351;SDS011;50680;52.626;-8.668;2024-01-15T10:43:22;11.05;;;7.57;;
64351;SDS011;50680;52.626;-8.668;2024-01-15T10:45:54;9.73;;;7.65;;
64351;SDS011;50680;52.626;-8.668;2024-01-15T10:48:22;10.48;;;7.30;;
64351;SDS011;50680;52.626;-8.668;2024-01-15T10:50:49;9.27;;;7.25;;
64351;SDS011;50680;52.626;-8.668;2024-01-15T10:53:17;11.55;;;6.80;;
64351;SDS011;50680;52.626;-8.668;2024-01-15T10:55:44;13.35;;;7.53;;
64351;SDS011;50680;52.626;-8.668;2024-01-15T10:58:15;11.02;;;6.63;;
64351;SDS011;50680;52.626;-8.668;2024-01-15T11:00:44;9.43;;;6.50;;
64351;SDS011;50680;52.626;-8.668;2024-01-15T11:03:12;9.50;;;6.63;;
64351;SDS011;50680;52.626;-8.668;2024-01-15T11:05:43;7.15;;;6.20;;
64351;SDS011;50680;52.626;-8.668;2024-01-15T11:08:11;7.95;;;6.90;;
64351;SDS011;50680;52.626;-8.668;2024-01-15T11:10:46;8.65;;;5.72;;
64351;SDS011;50680;52.626;-8.668;2024-01-15T11:13:22;6.88;;;6.15;;
64351;SDS011;50680;52.626;-8.668;2024-01-15T11:16:08;7.70;;;5.43;;
64351;SDS011;50680;52.626;-8.668;2024-01-15T11:18:37;8.82;;;6.25;;
64351;SDS011;50680;52.626;-8.668;2024-01-15T11:26:38;9.48;;;6.20;;
64351;SDS011;50680;52.626;-8.668;2024-01-15T11:32:07;8.43;;;6.20;;
64351;SDS011;50680;52.626;-8.668;2024-01-15T11:34:53;8.50;;;7.00;;
64351;SDS011;50680;52.626;-8.668;2024-01-15T11:37:26;6.50;;;5.53;;
64351;SDS011;50680;52.626;-8.668;2024-01-15T11:40:13;9.02;;;5.68;;
64351;SDS011;50680;52.626;-8.668;2024-01-15T11:42:40;7.28;;;5.72;;
64351;SDS011;50680;52.626;-8.668;2024-01-15T11:45:08;9.30;;;5.45;;
64351;SDS011;50680;52.626;-8.668;2024-01-15T11:50:08;9.13;;;5.80;;
64351;SDS011;50680;52.626;-8.668;2024-01-15T11:52:37;9.52;;;6.55;;
64351;SDS011;50680;52.626;-8.668;2024-01-15T11:55:19;10.60;;;6.05;;
64351;SDS011;50680;52.626;-8.668;2024-01-15T11:57:53;11.40;;;5.75;;
64351;SDS011;50680;52.626;-8.668;2024-01-15T12:00:23;12.70;;;6.50;;
64351;SDS011;50680;52.626;-8.668;2024-01-15T12:02:51;8.32;;;6.30;;
64351;SDS011;50680;52.626;-8.668;2024-01-15T12:05:18;10.88;;;6.32;;
64351;SDS011;50680;52.626;-8.668;2024-01-15T12:07:47;10.85;;;5.90;;
64351;SDS011;50680;52.626;-8.668;2024-01-15T12:10:19;9.00;;;5.78;;
64351;SDS011;50680;52.626;-8.668;2024-01-15T12:15:29;13.75;;;6.20;;
64351;SDS011;50680;52.626;-8.668;2024-01-15T12:17:57;8.48;;;6.15;;
64351;SDS011;50680;52.626;-8.668;2024-01-15T12:20:26;9.35;;;5.88;;
64351;SDS011;50680;52.626;-8.668;2024-01-15T12:22:53;10.02;;;5.68;;
64351;SDS011;50680;52.626;-8.668;2024-01-15T12:25:29;9.73;;;5.30;;
64351;SDS011;50680;52.626;-8.668;2024-01-15T12:27:57;7.25;;;5.90;;
64351;SDS011;50680;52.626;-8.668;2024-01-15T12:30:29;12.98;;;5.38;;
64351;SDS011;50680;52.626;-8.668;2024-01-15T12:33:03;10.73;;;5.80;;
64351;SDS011;50680;52.626;-8.668;2024-01-15T12:35:33;9.65;;;5.40;;
64351;SDS011;50680;52.626;-8.668;2024-01-15T12:38:00;10.07;;;5.60;;
64351;SDS011;50680;52.626;-8.668;2024-01-15T12:43:02;11.43;;;4.53;;
64351;SDS011;50680;52.626;-8.668;2024-01-15T12:45:30;9.57;;;6.07;;
64351;SDS011;50680;52.626;-8.668;2024-01-15T12:47:58;9.43;;;5.38;;
64351;SDS011;50680;52.626;-8.668;2024-01-15T12:50:27;9.55;;;5.63;;
64351;SDS011;50680;52.626;-8.668;2024-01-15T12:52:54;8.30;;;5.70;;
64351;SDS011;50680;52.626;-8.668;2024-01-15T12:55:21;8.15;;;5.28;;
64351;SDS011;50680;52.626;-8.668;2024-01-15T12:57:49;9.60;;;6.38;;
64351;SDS011;50680;52.626;-8.668;2024-01-15T13:00:19;10.88;;;5.60;;
64351;SDS011;50680;52.626;-8.668;2024-01-15T13:02:47;9.23;;;5.60;;
64351;SDS011;50680;52.626;-8.668;2024-01-15T13:05:14;6.63;;;4.97;;
64351;SDS011;50680;52.626;-8.668;2024-01-15T13:07:43;13.15;;;5.75;;
64351;SDS011;50680;52.626;-8.668;2024-01-15T13:10:10;9.50;;;5.72;;
64351;SDS011;50680;52.626;-8.668;2024-01-15T13:12:38;14.52;;;5.90;;
64351;SDS011;50680;52.626;-8.668;2024-01-15T13:15:07;7.50;;;5.25;;
64351;SDS011;50680;52.626;-8.668;2024-01-15T13:17:40;6.68;;;5.45;;
64351;SDS011;50680;52.626;-8.668;2024-01-15T13:20:08;12.80;;;5.22;;
64351;SDS011;50680;52.626;-8.668;2024-01-15T13:22:36;10.88;;;5.28;;
64351;SDS011;50680;52.626;-8.668;2024-01-15T13:25:06;6.03;;;4.55;;
64351;SDS011;50680;52.626;-8.668;2024-01-15T13:27:35;9.63;;;4.80;;
64351;SDS011;50680;52.626;-8.668;2024-01-15T13:30:03;6.75;;;5.05;;
64351;SDS011;50680;52.626;-8.668;2024-01-15T13:32:33;11.48;;;6.00;;
64351;SDS011;50680;52.626;-8.668;2024-01-15T13:35:02;6.15;;;4.95;;
64351;SDS011;50680;52.626;-8.668;2024-01-15T13:37:32;11.15;;;5.38;;
64351;SDS011;50680;52.626;-8.668;2024-01-15T13:39:59;9.20;;;4.97;;
64351;SDS011;50680;52.626;-8.668;2024-01-15T13:42:26;9.38;;;4.38;;
64351;SDS011;50680;52.626;-8.668;2024-01-15T13:44:54;7.53;;;4.82;;
64351;SDS011;50680;52.626;-8.668;2024-01-15T13:47:21;10.07;;;5.47;;
64351;SDS011;50680;52.626;-8.668;2024-01-15T13:49:49;7.82;;;5.13;;
64351;SDS011;50680;52.626;-8.668;2024-01-15T13:52:16;8.13;;;4.60;;
64351;SDS011;50680;52.626;-8.668;2024-01-15T13:54:44;9.15;;;5.07;;
64351;SDS011;50680;52.626;-8.668;2024-01-15T13:57:16;10.18;;;5.38;;
64351;SDS011;50680;52.626;-8.668;2024-01-15T13:59:46;8.20;;;6.03;;
64351;SDS011;50680;52.626;-8.668;2024-01-15T14:02:14;7.65;;;5.75;;
64351;SDS011;50680;52.626;-8.668;2024-01-15T14:04:46;9.88;;;4.90;;
64351;SDS011;50680;52.626;-8.668;2024-01-15T14:07:15;6.80;;;4.45;;
64351;SDS011;50680;52.626;-8.668;2024-01-15T14:09:42;8.15;;;5.07;;
64351;SDS011;50680;52.626;-8.668;2024-01-15T14:12:09;5.45;;;4.90;;
64351;SDS011;50680;52.626;-8.668;2024-01-15T14:14:36;6.57;;;5.97;;
64351;SDS011;50680;52.626;-8.668;2024-01-15T14:17:03;6.20;;;5.40;;
64351;SDS011;50680;52.626;-8.668;2024-01-15T14:19:30;7.68;;;6.50;;
64351;SDS011;50680;52.626;-8.668;2024-01-15T14:21:58;7.80;;;6.00;;
64351;SDS011;50680;52.626;-8.668;2024-01-15T14:24:25;8.65;;;5.68;;
64351;SDS011;50680;52.626;-8.668;2024-01-15T14:26:52;6.60;;;5.80;;
64351;SDS011;50680;52.626;-8.668;2024-01-15T14:29:19;7.70;;;5.70;;
64351;SDS011;50680;52.626;-8.668;2024-01-15T14:31:49;8.73;;;6.22;;
64351;SDS011;50680;52.626;-8.668;2024-01-15T14:34:16;9.93;;;5.90;;
64351;SDS011;50680;52.626;-8.668;2024-01-15T14:36:45;12.10;;;5.32;;
64351;SDS011;50680;52.626;-8.668;2024-01-15T14:39:13;8.52;;;6.07;;
64351;SDS011;50680;52.626;-8.668;2024-01-15T14:41:40;7.38;;;6.30;;
64351;SDS011;50680;52.626;-8.668;2024-01-15T14:44:08;7.10;;;6.22;;
64351;SDS011;50680;52.626;-8.668;2024-01-15T14:46:35;7.80;;;5.57;;